LFSN/ENC METAR and TAF weather

Enter ICAO airport designator
Station Type Date Time Source
LFSN METAR 2020/09/18 17:00 UTC NOAA

LFSN 181700Z AUTO 07011KT CAVOK 25/13 Q1018


Station Type Date Time Source
LFSN Decoded METAR 2020/09/18 17:00 UTC NOAA

Nancy / Essey, France (LFSN) 48-41N 006-13E 217M
Sep 18, 2020 - 01:00 PM EDT / 2020.09.18 1700 UTC
Wind: from the ENE (070 degrees) at 13 MPH (11 KT):0
Visibility: greater than 7 mile(s):0
Temperature: 77 F (25 C)
Dew Point: 55 F (13 C)
Relative Humidity: 47%
Pressure (altimeter): 30.06 in. Hg (1018 hPa)
ob: LFSN 181700Z AUTO 07011KT CAVOK 25/13 Q1018
cycle: 17

Station Type Date Time Source
LFSN TAF 2012/03/14 16:58 UTC NOAA

TAF LFSN 141600Z 1416/1512 CNL

Example: see airport list